sensor_id;sensor_type;location;lat;lon;timestamp;pressure;altitude;pressure_sealevel;temperature;humidity
71966;BME280;59836;52.132;5.442;2023-11-25T00:01:35;101333.88;;;5.14;100.00
71966;BME280;59836;52.132;5.442;2023-11-25T00:04:12;101334.94;;;5.13;100.00
71966;BME280;59836;52.132;5.442;2023-11-25T00:06:42;101335.38;;;5.10;100.00
71966;BME280;59836;52.132;5.442;2023-11-25T00:09:08;101332.69;;;5.10;100.00
71966;BME280;59836;52.132;5.442;2023-11-25T00:11:42;101327.53;;;5.08;100.00
71966;BME280;59836;52.132;5.442;2023-11-25T00:14:32;101330.00;;;5.10;100.00
71966;BME280;59836;52.132;5.442;2023-11-25T00:17:03;101331.63;;;5.11;100.00
71966;BME280;59836;52.132;5.442;2023-11-25T00:19:34;101333.88;;;5.14;100.00
71966;BME280;59836;52.132;5.442;2023-11-25T00:22:04;101334.50;;;5.16;100.00
71966;BME280;59836;52.132;5.442;2023-11-25T00:24:33;101331.34;;;5.19;100.00
71966;BME280;59836;52.132;5.442;2023-11-25T00:27:00;101324.94;;;5.20;100.00
71966;BME280;59836;52.132;5.442;2023-11-25T00:29:46;101330.31;;;5.20;100.00
71966;BME280;59836;52.132;5.442;2023-11-25T00:32:12;101331.97;;;5.21;100.00
71966;BME280;59836;52.132;5.442;2023-11-25T00:34:53;101331.97;;;5.21;100.00
71966;BME280;59836;52.132;5.442;2023-11-25T00:37:23;101342.66;;;5.28;100.00
71966;BME280;59836;52.132;5.442;2023-11-25T00:39:53;101349.47;;;5.30;100.00
71966;BME280;59836;52.132;5.442;2023-11-25T00:42:19;101348.78;;;5.35;100.00
71966;BME280;59836;52.132;5.442;2023-11-25T00:45:12;101340.06;;;5.40;100.00
71966;BME280;59836;52.132;5.442;2023-11-25T00:47:46;101358.44;;;5.43;100.00
71966;BME280;59836;52.132;5.442;2023-11-25T00:50:13;101352.47;;;5.41;100.00
71966;BME280;59836;52.132;5.442;2023-11-25T00:52:42;101352.03;;;5.44;100.00
71966;BME280;59836;52.132;5.442;2023-11-25T00:55:09;101352.03;;;5.44;100.00
71966;BME280;59836;52.132;5.442;2023-11-25T00:57:39;101354.25;;;5.47;100.00
71966;BME280;59836;52.132;5.442;2023-11-25T01:00:13;101370.16;;;5.49;100.00
71966;BME280;59836;52.132;5.442;2023-11-25T01:02:43;101361.06;;;5.50;100.00
71966;BME280;59836;52.132;5.442;2023-11-25T01:05:10;101361.06;;;5.50;100.00
71966;BME280;59836;52.132;5.442;2023-11-25T01:10:33;101346.25;;;5.40;100.00
71966;BME280;59836;52.132;5.442;2023-11-25T01:13:04;101352.47;;;5.41;100.00
71966;BME280;59836;52.132;5.442;2023-11-25T01:15:31;101346.69;;;5.37;100.00
71966;BME280;59836;52.132;5.442;2023-11-25T01:17:59;101345.44;;;5.40;100.00
71966;BME280;59836;52.132;5.442;2023-11-25T01:20:41;101348.72;;;5.42;100.00
71966;BME280;59836;52.132;5.442;2023-11-25T01:23:09;101349.53;;;5.42;100.00
71966;BME280;59836;52.132;5.442;2023-11-25T01:25:36;101346.69;;;5.37;100.00
71966;BME280;59836;52.132;5.442;2023-11-25T01:28:04;101353.34;;;5.35;100.00
71966;BME280;59836;52.132;5.442;2023-11-25T01:30:41;101362.03;;;5.37;100.00
71966;BME280;59836;52.132;5.442;2023-11-25T01:33:19;101365.75;;;5.36;100.00
71966;BME280;59836;52.132;5.442;2023-11-25T01:35:56;101369.25;;;5.36;100.00
71966;BME280;59836;52.132;5.442;2023-11-25T01:38:23;101368.88;;;5.32;100.00
71966;BME280;59836;52.132;5.442;2023-11-25T01:40:49;101374.53;;;5.24;100.00
71966;BME280;59836;52.132;5.442;2023-11-25T01:43:28;101368.84;;;5.14;100.00
71966;BME280;59836;52.132;5.442;2023-11-25T01:45:55;101375.44;;;5.18;100.00
71966;BME280;59836;52.132;5.442;2023-11-25T01:48:23;101378.72;;;5.20;100.00
71966;BME280;59836;52.132;5.442;2023-11-25T01:50:57;101374.97;;;5.21;100.00
71966;BME280;59836;52.132;5.442;2023-11-25T01:53:24;101365.72;;;5.17;100.00
71966;BME280;59836;52.132;5.442;2023-11-25T01:56:00;101363.53;;;5.07;100.00
71966;BME280;59836;52.132;5.442;2023-11-25T01:58:31;101375.16;;;5.01;100.00
71966;BME280;59836;52.132;5.442;2023-11-25T02:00:59;101376.41;;;4.98;100.00
71966;BME280;59836;52.132;5.442;2023-11-25T02:03:56;101367.13;;;4.94;100.00
71966;BME280;59836;52.132;5.442;2023-11-25T02:06:34;101368.16;;;4.93;100.00
71966;BME280;59836;52.132;5.442;2023-11-25T02:09:05;101364.44;;;4.94;100.00
71966;BME280;59836;52.132;5.442;2023-11-25T02:11:32;101364.69;;;4.93;100.00
71966;BME280;59836;52.132;5.442;2023-11-25T02:14:20;101366.53;;;4.92;100.00
71966;BME280;59836;52.132;5.442;2023-11-25T02:16:56;101367.38;;;4.93;100.00
71966;BME280;59836;52.132;5.442;2023-11-25T02:19:34;101365.72;;;4.92;100.00
71966;BME280;59836;52.132;5.442;2023-11-25T02:22:08;101360.53;;;4.90;100.00
71966;BME280;59836;52.132;5.442;2023-11-25T02:24:37;101360.78;;;4.88;100.00
71966;BME280;59836;52.132;5.442;2023-11-25T02:27:04;101360.38;;;4.85;100.00
71966;BME280;59836;52.132;5.442;2023-11-25T02:29:35;101353.78;;;4.81;100.00
71966;BME280;59836;52.132;5.442;2023-11-25T02:32:12;101352.97;;;4.80;100.00
71966;BME280;59836;52.132;5.442;2023-11-25T02:34:54;101347.25;;;4.77;100.00
71966;BME280;59836;52.132;5.442;2023-11-25T02:37:54;101349.31;;;4.75;100.00
71966;BME280;59836;52.132;5.442;2023-11-25T02:40:23;101345.63;;;4.69;100.00
71966;BME280;59836;52.132;5.442;2023-11-25T02:42:50;101351.06;;;4.62;100.00
71966;BME280;59836;52.132;5.442;2023-11-25T02:45:23;101339.09;;;4.58;100.00
71966;BME280;59836;52.132;5.442;2023-11-25T02:47:51;101336.19;;;4.60;100.00
71966;BME280;59836;52.132;5.442;2023-11-25T02:50:22;101331.22;;;4.63;100.00
71966;BME280;59836;52.132;5.442;2023-11-25T02:52:51;101329.13;;;4.65;100.00
71966;BME280;59836;52.132;5.442;2023-11-25T02:55:27;101333.03;;;4.69;100.00
71966;BME280;59836;52.132;5.442;2023-11-25T02:58:00;101337.78;;;4.67;100.00
71966;BME280;59836;52.132;5.442;2023-11-25T03:00:34;101335.09;;;4.67;100.00
71966;BME280;59836;52.132;5.442;2023-11-25T03:03:08;101334.66;;;4.70;100.00
71966;BME280;59836;52.132;5.442;2023-11-25T03:05:40;101333.63;;;4.71;100.00
71966;BME280;59836;52.132;5.442;2023-11-25T03:08:26;101339.00;;;4.71;100.00
71966;BME280;59836;52.132;5.442;2023-11-25T03:10:55;101323.09;;;4.70;100.00
71966;BME280;59836;52.132;5.442;2023-11-25T03:13:34;101326.59;;;4.70;100.00
71966;BME280;59836;52.132;5.442;2023-11-25T03:16:01;101329.91;;;4.72;100.00
71966;BME280;59836;52.132;5.442;2023-11-25T03:18:42;101333.41;;;4.73;100.00
71966;BME280;59836;52.132;5.442;2023-11-25T03:21:09;101328.84;;;4.73;100.00
71966;BME280;59836;52.132;5.442;2023-11-25T03:24:03;101330.50;;;4.75;100.00
71966;BME280;59836;52.132;5.442;2023-11-25T03:26:31;101327.81;;;4.75;100.00
71966;BME280;59836;52.132;5.442;2023-11-25T03:29:06;101323.63;;;4.79;100.00
71966;BME280;59836;52.132;5.442;2023-11-25T03:31:32;101326.91;;;4.81;100.00
71966;BME280;59836;52.132;5.442;2023-11-25T03:34:24;101324.84;;;4.83;100.00
71966;BME280;59836;52.132;5.442;2023-11-25T03:36:52;101315.28;;;4.87;100.00
71966;BME280;59836;52.132;5.442;2023-11-25T03:39:30;101323.53;;;4.92;100.00
71966;BME280;59836;52.132;5.442;2023-11-25T03:42:17;101325.56;;;4.97;100.00
71966;BME280;59836;52.132;5.442;2023-11-25T03:44:47;101321.84;;;4.98;100.00
71966;BME280;59836;52.132;5.442;2023-11-25T03:47:33;101328.03;;;4.98;100.00
71966;BME280;59836;52.132;5.442;2023-11-25T03:50:04;101334.00;;;5.00;100.00
71966;BME280;59836;52.132;5.442;2023-11-25T03:52:31;101335.66;;;5.01;100.00
71966;BME280;59836;52.132;5.442;2023-11-25T03:54:57;101341.63;;;5.03;100.00
71966;BME280;59836;52.132;5.442;2023-11-25T04:01:17;101336.25;;;5.03;100.00
71966;BME280;59836;52.132;5.442;2023-11-25T04:03:44;101341.63;;;5.03;100.00
71966;BME280;59836;52.132;5.442;2023-11-25T04:06:13;101340.38;;;5.06;100.00
71966;BME280;59836;52.132;5.442;2023-11-25T04:08:40;101339.09;;;5.09;100.00
71966;BME280;59836;52.132;5.442;2023-11-25T04:11:06;101337.00;;;5.11;100.00
71966;BME280;59836;52.132;5.442;2023-11-25T04:13:48;101340.31;;;5.13;100.00
71966;BME280;59836;52.132;5.442;2023-11-25T04:16:17;101341.50;;;5.17;100.00
71966;BME280;59836;52.132;5.442;2023-11-25T04:18:44;101343.75;;;5.20;100.00
71966;BME280;59836;52.132;5.442;2023-11-25T04:21:11;101354.91;;;5.24;100.00
71966;BME280;59836;52.132;5.442;2023-11-25T04:23:37;101367.91;;;5.27;100.00
71966;BME280;59836;52.132;5.442;2023-11-25T04:26:05;101374.09;;;5.27;100.00
71966;BME280;59836;52.132;5.442;2023-11-25T04:28:37;101361.03;;;5.31;100.00
71966;BME280;59836;52.132;5.442;2023-11-25T04:31:08;101346.31;;;5.34;100.00
71966;BME280;59836;52.132;5.442;2023-11-25T04:33:34;101350.06;;;5.32;100.00
71966;BME280;59836;52.132;5.442;2023-11-25T04:36:10;101336.59;;;5.32;100.00
71966;BME280;59836;52.132;5.442;2023-11-25T04:39:01;101334.38;;;5.29;100.00
71966;BME280;59836;52.132;5.442;2023-11-25T04:41:27;101330.03;;;5.28;100.00
71966;BME280;59836;52.132;5.442;2023-11-25T04:43:55;101331.31;;;5.26;100.00
71966;BME280;59836;52.132;5.442;2023-11-25T04:46:21;101330.47;;;5.25;100.00
71966;BME280;59836;52.132;5.442;2023-11-25T04:48:54;101346.84;;;5.24;100.00
71966;BME280;59836;52.132;5.442;2023-11-25T04:51:26;101338.53;;;5.25;100.00
71966;BME280;59836;52.132;5.442;2023-11-25T04:53:53;101334.44;;;5.23;100.00
71966;BME280;59836;52.132;5.442;2023-11-25T04:56:28;101338.53;;;5.25;100.00
71966;BME280;59836;52.132;5.442;2023-11-25T05:01:58;101322.84;;;5.22;100.00
71966;BME280;59836;52.132;5.442;2023-11-25T05:04:25;101322.25;;;5.20;100.00
71966;BME280;59836;52.132;5.442;2023-11-25T05:07:08;101317.91;;;5.19;100.00
71966;BME280;59836;52.132;5.442;2023-11-25T05:09:36;101314.19;;;5.20;100.00
71966;BME280;59836;52.132;5.442;2023-11-25T05:12:06;101311.72;;;5.19;100.00
71966;BME280;59836;52.132;5.442;2023-11-25T05:14:33;101314.63;;;5.17;100.00
71966;BME280;59836;52.132;5.442;2023-11-25T05:17:04;101318.59;;;5.14;100.00
71966;BME280;59836;52.132;5.442;2023-11-25T05:19:39;101307.59;;;5.16;100.00
71966;BME280;59836;52.132;5.442;2023-11-25T05:22:15;101304.91;;;5.16;100.00
71966;BME280;59836;52.132;5.442;2023-11-25T05:24:41;101299.78;;;5.14;100.00
71966;BME280;59836;52.132;5.442;2023-11-25T05:27:26;101301.63;;;5.14;100.00
71966;BME280;59836;52.132;5.442;2023-11-25T05:29:59;101305.59;;;5.11;100.00
71966;BME280;59836;52.132;5.442;2023-11-25T05:32:40;101298.34;;;5.12;100.00
71966;BME280;59836;52.132;5.442;2023-11-25T05:35:34;101300.22;;;5.11;100.00
71966;BME280;59836;52.132;5.442;2023-11-25T05:38:08;101301.03;;;5.12;100.00
71966;BME280;59836;52.132;5.442;2023-11-25T05:40:54;101295.03;;;5.10;100.00
71966;BME280;59836;52.132;5.442;2023-11-25T05:43:24;101288.03;;;5.09;100.00
71966;BME280;59836;52.132;5.442;2023-11-25T05:46:19;101280.41;;;5.06;100.00
71966;BME280;59836;52.132;5.442;2023-11-25T05:48:46;101282.03;;;5.07;100.00
71966;BME280;59836;52.132;5.442;2023-11-25T05:51:13;101287.41;;;5.07;100.00
71966;BME280;59836;52.132;5.442;2023-11-25T05:53:51;101292.00;;;5.06;100.00
71966;BME280;59836;52.132;5.442;2023-11-25T05:56:19;101284.97;;;5.05;100.00
71966;BME280;59836;52.132;5.442;2023-11-25T05:58:48;101278.16;;;5.02;100.00
71966;BME280;59836;52.132;5.442;2023-11-25T06:01:14;101275.09;;;4.99;100.00
71966;BME280;59836;52.132;5.442;2023-11-25T06:06:55;101263.19;;;4.88;100.00
71966;BME280;59836;52.132;5.442;2023-11-25T06:09:52;101267.97;;;4.86;100.00
71966;BME280;59836;52.132;5.442;2023-11-25T06:12:29;101271.94;;;4.83;100.00
71966;BME280;59836;52.132;5.442;2023-11-25T06:14:55;101268.56;;;4.88;100.00
71966;BME280;59836;52.132;5.442;2023-11-25T06:17:24;101264.84;;;4.89;100.00
71966;BME280;59836;52.132;5.442;2023-11-25T06:19:51;101256.56;;;4.91;100.00
71966;BME280;59836;52.132;5.442;2023-11-25T06:22:26;101262.31;;;4.94;100.00
71966;BME280;59836;52.132;5.442;2023-11-25T06:24:53;101259.41;;;4.96;100.00
71966;BME280;59836;52.132;5.442;2023-11-25T06:27:20;101255.69;;;4.97;100.00
71966;BME280;59836;52.132;5.442;2023-11-25T06:30:05;101259.63;;;4.94;100.00
71966;BME280;59836;52.132;5.442;2023-11-25T06:32:33;101274.25;;;4.98;100.00
71966;BME280;59836;52.132;5.442;2023-11-25T06:35:06;101281.88;;;5.01;100.00
71966;BME280;59836;52.132;5.442;2023-11-25T06:37:39;101276.66;;;5.07;100.00
71966;BME280;59836;52.132;5.442;2023-11-25T06:40:13;101276.22;;;5.10;100.00
71966;BME280;59836;52.132;5.442;2023-11-25T06:42:40;101269.59;;;5.12;100.00
71966;BME280;59836;52.132;5.442;2023-11-25T06:45:07;101272.28;;;5.12;100.00
71966;BME280;59836;52.132;5.442;2023-11-25T06:47:37;101261.28;;;5.14;100.00
71966;BME280;59836;52.132;5.442;2023-11-25T06:50:05;101257.56;;;5.15;100.00
71966;BME280;59836;52.132;5.442;2023-11-25T06:52:45;101259.81;;;5.18;100.00
71966;BME280;59836;52.132;5.442;2023-11-25T06:55:12;101255.47;;;5.17;100.00
71966;BME280;59836;52.132;5.442;2023-11-25T06:57:48;101263.09;;;5.20;100.00
71966;BME280;59836;52.132;5.442;2023-11-25T07:00:16;101275.28;;;5.23;100.00
71966;BME280;59836;52.132;5.442;2023-11-25T07:02:43;101278.56;;;5.25;100.00
71966;BME280;59836;52.132;5.442;2023-11-25T07:05:10;101280.41;;;5.24;100.00
71966;BME280;59836;52.132;5.442;2023-11-25T07:07:40;101268.63;;;5.25;100.00
71966;BME280;59836;52.132;5.442;2023-11-25T07:10:07;101278.56;;;5.25;100.00
71966;BME280;59836;52.132;5.442;2023-11-25T07:12:40;101270.25;;;5.26;100.00
71966;BME280;59836;52.132;5.442;2023-11-25T07:15:21;101267.38;;;5.28;100.00
71966;BME280;59836;52.132;5.442;2023-11-25T07:17:48;101267.38;;;5.28;100.00
71966;BME280;59836;52.132;5.442;2023-11-25T07:20:45;101268.41;;;5.27;100.00
71966;BME280;59836;52.132;5.442;2023-11-25T07:23:12;101268.63;;;5.25;100.00
71966;BME280;59836;52.132;5.442;2023-11-25T07:25:57;101261.59;;;5.24;100.00
71966;BME280;59836;52.132;5.442;2023-11-25T07:28:25;101264.53;;;5.23;100.00
71966;BME280;59836;52.132;5.442;2023-11-25T07:33:55;101268.25;;;5.22;100.00
71966;BME280;59836;52.132;5.442;2023-11-25T07:36:35;101267.66;;;5.20;100.00
71966;BME280;59836;52.132;5.442;2023-11-25T07:39:04;101262.03;;;5.21;100.00
71966;BME280;59836;52.132;5.442;2023-11-25T07:41:40;101249.66;;;5.20;100.00
71966;BME280;59836;52.132;5.442;2023-11-25T07:44:17;101253.38;;;5.19;100.00
71966;BME280;59836;52.132;5.442;2023-11-25T07:47:03;101251.72;;;5.18;100.00
71966;BME280;59836;52.132;5.442;2023-11-25T07:49:49;101252.34;;;5.20;100.00
71966;BME280;59836;52.132;5.442;2023-11-25T07:52:16;101248.59;;;5.21;100.00
71966;BME280;59836;52.132;5.442;2023-11-25T07:54:43;101244.25;;;5.20;100.00
71966;BME280;59836;52.132;5.442;2023-11-25T07:57:26;101248.75;;;5.26;100.00
71966;BME280;59836;52.132;5.442;2023-11-25T07:59:53;101261.75;;;5.29;100.00
71966;BME280;59836;52.132;5.442;2023-11-25T08:02:19;101280.13;;;5.32;100.00
71966;BME280;59836;52.132;5.442;2023-11-25T08:04:46;101284.47;;;5.34;100.00
71966;BME280;59836;52.132;5.442;2023-11-25T08:07:13;101280.94;;;5.33;100.00
71966;BME280;59836;52.132;5.442;2023-11-25T08:09:42;101254.97;;;5.27;100.00
71966;BME280;59836;52.132;5.442;2023-11-25T08:12:08;101262.78;;;5.28;100.00
71966;BME280;59836;52.132;5.442;2023-11-25T08:14:40;101251.59;;;5.31;100.00
71966;BME280;59836;52.132;5.442;2023-11-25T08:17:43;101258.69;;;5.26;100.00
71966;BME280;59836;52.132;5.442;2023-11-25T08:20:10;101262.44;;;5.25;100.00
71966;BME280;59836;52.132;5.442;2023-11-25T08:22:37;101250.63;;;5.26;100.00
71966;BME280;59836;52.132;5.442;2023-11-25T08:25:07;101265.94;;;5.25;100.00
71966;BME280;59836;52.132;5.442;2023-11-25T08:27:49;101263.47;;;5.24;100.00
71966;BME280;59836;52.132;5.442;2023-11-25T08:30:25;101256.22;;;5.24;100.00
71966;BME280;59836;52.132;5.442;2023-11-25T08:32:54;101260.34;;;5.27;100.00
71966;BME280;59836;52.132;5.442;2023-11-25T08:35:21;101252.88;;;5.29;100.00
71966;BME280;59836;52.132;5.442;2023-11-25T08:37:49;101247.84;;;5.32;100.00
71966;BME280;59836;52.132;5.442;2023-11-25T08:40:16;101254.44;;;5.37;100.00
71966;BME280;59836;52.132;5.442;2023-11-25T08:42:44;101260.16;;;5.40;100.00
71966;BME280;59836;52.132;5.442;2023-11-25T08:45:14;101266.97;;;5.43;100.00
71966;BME280;59836;52.132;5.442;2023-11-25T08:47:49;101277.75;;;5.43;100.00
71966;BME280;59836;52.132;5.442;2023-11-25T08:50:16;101275.06;;;5.43;100.00
71966;BME280;59836;52.132;5.442;2023-11-25T08:52:43;101274.81;;;5.44;100.00
71966;BME280;59836;52.132;5.442;2023-11-25T08:55:12;101276.69;;;5.44;100.00
71966;BME280;59836;52.132;5.442;2023-11-25T08:57:43;101278.34;;;5.45;100.00
71966;BME280;59836;52.132;5.442;2023-11-25T09:00:10;101272.97;;;5.45;100.00
71966;BME280;59836;52.132;5.442;2023-11-25T09:02:56;101280.19;;;5.44;100.00
71966;BME280;59836;52.132;5.442;2023-11-25T09:05:39;101278.34;;;5.45;100.00
71966;BME280;59836;52.132;5.442;2023-11-25T09:08:17;101272.06;;;5.51;100.00
71966;BME280;59836;52.132;5.442;2023-11-25T09:10:45;101278.63;;;5.55;100.00
71966;BME280;59836;52.132;5.442;2023-11-25T09:13:31;101276.91;;;5.61;100.00
71966;BME280;59836;52.132;5.442;2023-11-25T09:15:59;101271.91;;;5.65;100.00
71966;BME280;59836;52.132;5.442;2023-11-25T09:18:26;101281.84;;;5.64;100.00
71966;BME280;59836;52.132;5.442;2023-11-25T09:20:55;101279.38;;;5.63;100.00
71966;BME280;59836;52.132;5.442;2023-11-25T09:23:32;101269.22;;;5.65;100.00
71966;BME280;59836;52.132;5.442;2023-11-25T09:26:13;101277.28;;;5.65;100.00
71966;BME280;59836;52.132;5.442;2023-11-25T09:28:42;101273.09;;;5.69;100.00
71966;BME280;59836;52.132;5.442;2023-11-25T09:31:09;101274.28;;;5.73;100.00
71966;BME280;59836;52.132;5.442;2023-11-25T09:33:40;101279.56;;;5.80;100.00
71966;BME280;59836;52.132;5.442;2023-11-25T09:36:07;101275.16;;;5.85;100.00
71966;BME280;59836;52.132;5.442;2023-11-25T09:38:35;101283.59;;;5.89;100.00
71966;BME280;59836;52.132;5.442;2023-11-25T09:41:29;101280.22;;;5.94;100.00
71966;BME280;59836;52.132;5.442;2023-11-25T09:44:21;101273.56;;;5.96;100.00
71966;BME280;59836;52.132;5.442;2023-11-25T09:50:02;101272.72;;;5.96;100.00
71966;BME280;59836;52.132;5.442;2023-11-25T09:52:44;101277.66;;;5.99;100.00
71966;BME280;59836;52.132;5.442;2023-11-25T09:55:15;101273.50;;;6.03;100.00
71966;BME280;59836;52.132;5.442;2023-11-25T10:00:15;101284.34;;;6.15;100.00
71966;BME280;59836;52.132;5.442;2023-11-25T10:02:44;101283.88;;;6.18;100.00
71966;BME280;59836;52.132;5.442;2023-11-25T10:05:12;101288.81;;;6.21;100.00
71966;BME280;59836;52.132;5.442;2023-11-25T10:07:39;101279.44;;;6.24;100.00
71966;BME280;59836;52.132;5.442;2023-11-25T10:10:06;101283.31;;;6.28;100.00
71966;BME280;59836;52.132;5.442;2023-11-25T10:12:33;101285.53;;;6.31;100.00
71966;BME280;59836;52.132;5.442;2023-11-25T10:15:00;101279.69;;;6.34;100.00
71966;BME280;59836;52.132;5.442;2023-11-25T10:17:27;101277.00;;;6.34;100.00
71966;BME280;59836;52.132;5.442;2023-11-25T10:20:07;101277.25;;;6.32;100.00
71966;BME280;59836;52.132;5.442;2023-11-25T10:22:49;101281.78;;;6.32;100.00
71966;BME280;59836;52.132;5.442;2023-11-25T10:25:16;101277.00;;;6.34;100.00
71966;BME280;59836;52.132;5.442;2023-11-25T10:27:43;101274.44;;;6.39;100.00
71966;BME280;59836;52.132;5.442;2023-11-25T10:30:14;101265.91;;;6.42;100.00
71966;BME280;59836;52.132;5.442;2023-11-25T10:32:41;101260.03;;;6.45;100.00
71966;BME280;59836;52.132;5.442;2023-11-25T10:35:08;101250.66;;;6.48;100.00
71966;BME280;59836;52.132;5.442;2023-11-25T10:37:39;101257.00;;;6.54;100.00
71966;BME280;59836;52.132;5.442;2023-11-25T10:40:09;101251.63;;;6.54;100.00
71966;BME280;59836;52.132;5.442;2023-11-25T10:42:43;101246.22;;;6.54;100.00
71966;BME280;59836;52.132;5.442;2023-11-25T10:45:16;101253.25;;;6.55;100.00
71966;BME280;59836;52.132;5.442;2023-11-25T10:47:43;101251.16;;;6.57;100.00
71966;BME280;59836;52.132;5.442;2023-11-25T10:50:11;101259.38;;;6.62;100.00
71966;BME280;59836;52.132;5.442;2023-11-25T10:52:42;101253.25;;;6.67;100.00
71966;BME280;59836;52.132;5.442;2023-11-25T10:55:10;101249.31;;;6.69;100.00
71966;BME280;59836;52.132;5.442;2023-11-25T10:57:36;101250.94;;;6.70;100.00
71966;BME280;59836;52.132;5.442;2023-11-25T11:00:04;101247.66;;;6.68;100.00
71966;BME280;59836;52.132;5.442;2023-11-25T11:02:47;101246.00;;;6.67;100.00
71966;BME280;59836;52.132;5.442;2023-11-25T11:05:27;101246.00;;;6.67;100.00
71966;BME280;59836;52.132;5.442;2023-11-25T11:08:00;101244.97;;;6.68;100.00
71966;BME280;59836;52.132;5.442;2023-11-25T11:13:14;101240.38;;;6.69;100.00
71966;BME280;59836;52.132;5.442;2023-11-25T11:15:43;101239.56;;;6.68;100.00
71966;BME280;59836;52.132;5.442;2023-11-25T11:18:19;101243.91;;;6.69;100.00
71966;BME280;59836;52.132;5.442;2023-11-25T11:20:50;101233.13;;;6.69;100.00
71966;BME280;59836;52.132;5.442;2023-11-25T11:23:19;101246.59;;;6.69;100.00
71966;BME280;59836;52.132;5.442;2023-11-25T11:28:46;101249.63;;;6.73;100.00
71966;BME280;59836;52.132;5.442;2023-11-25T11:33:55;101237.91;;;6.79;100.00
71966;BME280;59836;52.132;5.442;2023-11-25T11:36:29;101220.00;;;6.85;100.00
71966;BME280;59836;52.132;5.442;2023-11-25T11:38:56;101234.06;;;6.87;100.00
71966;BME280;59836;52.132;5.442;2023-11-25T11:41:24;101235.72;;;6.88;100.00
71966;BME280;59836;52.132;5.442;2023-11-25T11:44:07;101224.09;;;6.87;100.00
71966;BME280;59836;52.132;5.442;2023-11-25T11:46:38;101222.44;;;6.86;100.00
71966;BME280;59836;52.132;5.442;2023-11-25T11:49:10;101227.03;;;6.86;100.00
71966;BME280;59836;52.132;5.442;2023-11-25T11:51:58;101224.09;;;6.87;100.00
71966;BME280;59836;52.132;5.442;2023-11-25T11:54:26;101229.25;;;6.89;100.00
71966;BME280;59836;52.132;5.442;2023-11-25T11:57:02;101228.19;;;6.90;100.00
71966;BME280;59836;52.132;5.442;2023-11-25T12:00:06;101216.91;;;6.93;100.00
71966;BME280;59836;52.132;5.442;2023-11-25T12:02:41;101222.91;;;6.95;100.00
71966;BME280;59836;52.132;5.442;2023-11-25T12:05:09;101229.72;;;6.98;100.00
71966;BME280;59836;52.132;5.442;2023-11-25T12:07:37;101221.38;;;6.99;100.00
71966;BME280;59836;52.132;5.442;2023-11-25T12:10:04;101208.25;;;7.03;100.00
71966;BME280;59836;52.132;5.442;2023-11-25T12:12:32;101217.72;;;7.05;100.00
71966;BME280;59836;52.132;5.442;2023-11-25T12:15:05;101222.06;;;7.06;100.00
71966;BME280;59836;52.132;5.442;2023-11-25T12:17:34;101213.75;;;7.08;100.00
71966;BME280;59836;52.132;5.442;2023-11-25T12:20:01;101218.31;;;7.07;100.00
71966;BME280;59836;52.132;5.442;2023-11-25T12:22:28;101212.94;;;7.07;100.00
71966;BME280;59836;52.132;5.442;2023-11-25T12:24:54;101218.09;;;7.09;100.00
71966;BME280;59836;52.132;5.442;2023-11-25T12:27:22;101219.47;;;7.12;100.00
71966;BME280;59836;52.132;5.442;2023-11-25T12:29:50;101218.69;;;7.11;100.00
71966;BME280;59836;52.132;5.442;2023-11-25T12:32:16;101207.88;;;7.11;100.00
71966;BME280;59836;52.132;5.442;2023-11-25T12:34:43;101210.34;;;7.13;100.00
71966;BME280;59836;52.132;5.442;2023-11-25T12:37:12;101215.25;;;7.16;100.00
71966;BME280;59836;52.132;5.442;2023-11-25T12:39:39;101214.19;;;7.17;100.00
71966;BME280;59836;52.132;5.442;2023-11-25T12:42:06;101211.38;;;7.23;100.00
71966;BME280;59836;52.132;5.442;2023-11-25T12:44:49;101208.22;;;7.27;100.00
71966;BME280;59836;52.132;5.442;2023-11-25T12:47:16;101216.53;;;7.25;100.00
71966;BME280;59836;52.132;5.442;2023-11-25T12:49:43;101225.69;;;7.24;100.00
71966;BME280;59836;52.132;5.442;2023-11-25T12:52:18;101224.63;;;7.25;100.00
71966;BME280;59836;52.132;5.442;2023-11-25T12:54:46;101227.09;;;7.27;100.00
71966;BME280;59836;52.132;5.442;2023-11-25T12:57:12;101227.09;;;7.27;100.00
71966;BME280;59836;52.132;5.442;2023-11-25T12:59:39;101228.97;;;7.26;100.00
71966;BME280;59836;52.132;5.442;2023-11-25T13:02:08;101224.16;;;7.28;99.98
71966;BME280;59836;52.132;5.442;2023-11-25T13:04:42;101219.34;;;7.30;100.00
71966;BME280;59836;52.132;5.442;2023-11-25T13:07:10;101233.19;;;7.34;99.53
71966;BME280;59836;52.132;5.442;2023-11-25T13:09:37;101238.34;;;7.35;99.49
71966;BME280;59836;52.132;5.442;2023-11-25T13:12:05;101237.75;;;7.33;99.72
71966;BME280;59836;52.132;5.442;2023-11-25T13:14:33;101269.44;;;7.26;99.07
71966;BME280;59836;52.132;5.442;2023-11-25T13:16:59;101264.16;;;7.07;98.67
71966;BME280;59836;52.132;5.442;2023-11-25T13:19:28;101255.03;;;6.97;99.40
71966;BME280;59836;52.132;5.442;2023-11-25T13:21:54;101253.53;;;6.89;100.00
71966;BME280;59836;52.132;5.442;2023-11-25T13:24:21;101249.66;;;6.85;100.00
71966;BME280;59836;52.132;5.442;2023-11-25T13:26:48;101241.44;;;6.79;100.00
71966;BME280;59836;52.132;5.442;2023-11-25T13:29:15;101243.56;;;6.77;100.00
71966;BME280;59836;52.132;5.442;2023-11-25T13:31:41;101239.22;;;6.76;100.00
71966;BME280;59836;52.132;5.442;2023-11-25T13:34:08;101237.81;;;6.74;100.00
71966;BME280;59836;52.132;5.442;2023-11-25T13:36:35;101230.56;;;6.74;100.00
71966;BME280;59836;52.132;5.442;2023-11-25T13:39:04;101235.47;;;6.77;100.00
71966;BME280;59836;52.132;5.442;2023-11-25T13:41:31;101225.63;;;6.83;100.00
71966;BME280;59836;52.132;5.442;2023-11-25T13:43:57;101227.03;;;6.86;100.00
71966;BME280;59836;52.132;5.442;2023-11-25T13:46:25;101225.97;;;6.87;100.00